createdAt,value
2022-10-13T00:01:20.597Z,13.27
2022-10-13T00:03:49.134Z,14.13
2022-10-13T00:06:24.592Z,13.80
2022-10-13T00:11:30.656Z,13.05
2022-10-13T00:14:02.383Z,13.63
2022-10-13T00:16:32.912Z,14.48
2022-10-13T00:19:00.508Z,13.55
2022-10-13T00:21:28.687Z,14.13
2022-10-13T00:23:56.812Z,13.95
2022-10-13T00:26:26.441Z,13.82
2022-10-13T00:28:56.184Z,14.13
2022-10-13T00:31:29.881Z,13.18
2022-10-13T00:34:02.042Z,14.45
2022-10-13T00:36:29.656Z,13.35
2022-10-13T00:38:57.756Z,13.77
2022-10-13T00:41:26.647Z,12.93
2022-10-13T00:44:03.662Z,13.30
2022-10-13T00:46:35.048Z,13.52
2022-10-13T00:49:09.621Z,13.43
2022-10-13T00:51:48.282Z,13.55
2022-10-13T00:54:24.658Z,13.48
2022-10-13T00:56:54.230Z,12.60
2022-10-13T00:59:29.030Z,12.48
2022-10-13T01:01:59.444Z,12.93
2022-10-13T01:04:34.180Z,12.80
2022-10-13T01:07:03.444Z,13.20
2022-10-13T01:09:37.411Z,13.32
2022-10-13T01:12:22.763Z,12.30
2022-10-13T01:15:10.204Z,11.98
2022-10-13T01:18:09.822Z,12.82
2022-10-13T01:21:05.463Z,12.77
2022-10-13T01:24:04.023Z,12.90
2022-10-13T01:27:02.404Z,12.43
2022-10-13T01:30:14.285Z,12.75
2022-10-13T01:33:10.630Z,13.38
2022-10-13T01:36:36.879Z,12.98
2022-10-13T01:39:38.497Z,12.55
2022-10-13T01:42:24.646Z,12.27
2022-10-13T01:45:00.535Z,13.18
2022-10-13T01:47:35.162Z,12.95
2022-10-13T01:50:05.558Z,12.45
2022-10-13T01:52:39.004Z,13.48
2022-10-13T01:55:12.752Z,12.38
2022-10-13T01:57:44.076Z,12.73
2022-10-13T02:00:16.562Z,12.80
2022-10-13T02:03:01.821Z,12.32
2022-10-13T02:06:03.306Z,13.30
2022-10-13T02:08:49.708Z,12.25
2022-10-13T02:11:22.667Z,12.70
2022-10-13T02:14:14.795Z,12.13
2022-10-13T02:16:45.919Z,11.50
2022-10-13T02:19:17.298Z,12.77
2022-10-13T02:21:46.802Z,12.05
2022-10-13T02:24:14.420Z,12.45
2022-10-13T02:26:42.524Z,12.90
2022-10-13T02:29:17.344Z,12.85
2022-10-13T02:31:46.165Z,11.68
2022-10-13T02:34:15.667Z,11.93
2022-10-13T02:36:46.935Z,12.52
2022-10-13T02:39:14.593Z,12.30
2022-10-13T02:41:42.015Z,12.55
2022-10-13T02:44:09.735Z,12.95
2022-10-13T02:46:41.973Z,11.80
2022-10-13T02:49:10.695Z,13.73
2022-10-13T02:51:40.431Z,12.23
2022-10-13T02:54:08.597Z,12.48
2022-10-13T02:56:36.030Z,12.18
2022-10-13T02:59:04.434Z,12.35
2022-10-13T03:01:32.071Z,12.02
2022-10-13T03:03:59.662Z,11.98
2022-10-13T03:06:27.022Z,12.15
2022-10-13T03:08:54.461Z,12.40
2022-10-13T03:11:21.823Z,12.18
2022-10-13T03:13:51.592Z,11.50
2022-10-13T03:16:18.985Z,12.95
2022-10-13T03:18:46.443Z,12.52
2022-10-13T03:21:14.623Z,11.93
2022-10-13T03:23:42.019Z,12.27
2022-10-13T03:26:10.050Z,11.93
2022-10-13T03:28:37.622Z,12.02
2022-10-13T03:31:08.551Z,12.70
2022-10-13T03:33:35.953Z,13.40
2022-10-13T03:36:06.161Z,12.88
2022-10-13T03:38:35.077Z,12.00
2022-10-13T03:41:12.107Z,11.95
2022-10-13T03:43:41.009Z,12.60
2022-10-13T03:46:11.861Z,12.18
2022-10-13T03:48:39.911Z,12.10
2022-10-13T03:51:11.073Z,11.68
2022-10-13T03:53:46.938Z,12.48
2022-10-13T03:56:18.857Z,12.75
2022-10-13T03:59:00.120Z,12.43
2022-10-13T04:01:30.551Z,12.32
2022-10-13T04:04:02.156Z,11.68
2022-10-13T04:06:31.184Z,11.65
2022-10-13T04:08:59.621Z,11.65
2022-10-13T04:11:27.048Z,12.52
2022-10-13T04:13:57.966Z,11.48
2022-10-13T04:16:30.263Z,12.18
2022-10-13T04:19:04.827Z,11.60
2022-10-13T04:21:34.593Z,12.77
2022-10-13T04:24:03.374Z,12.00
2022-10-13T04:26:34.854Z,11.38
2022-10-13T04:29:09.961Z,11.90
2022-10-13T04:31:40.024Z,12.60
2022-10-13T04:34:07.814Z,11.00
2022-10-13T04:36:35.300Z,12.10
2022-10-13T04:39:04.325Z,12.18
2022-10-13T04:41:33.778Z,12.30
2022-10-13T04:44:02.501Z,11.70
2022-10-13T04:46:30.695Z,12.63
2022-10-13T04:48:58.364Z,12.75
2022-10-13T04:51:32.493Z,13.27
2022-10-13T04:54:02.761Z,12.82
2022-10-13T04:56:30.200Z,13.40
2022-10-13T04:59:05.775Z,12.32
2022-10-13T05:01:33.898Z,11.90
2022-10-13T05:04:04.907Z,12.52
2022-10-13T05:06:58.980Z,12.48
2022-10-13T05:09:28.483Z,13.43
2022-10-13T05:11:56.215Z,12.40
2022-10-13T05:14:23.896Z,12.73
2022-10-13T05:16:51.620Z,12.82
2022-10-13T05:19:19.160Z,13.02
2022-10-13T05:21:46.622Z,13.73
2022-10-13T05:24:16.007Z,12.75
2022-10-13T05:26:48.079Z,12.82
2022-10-13T05:29:15.656Z,13.40
2022-10-13T05:31:43.080Z,13.18
2022-10-13T05:34:12.051Z,12.93
2022-10-13T05:36:39.536Z,13.93
2022-10-13T05:39:08.360Z,13.68
2022-10-13T05:41:35.878Z,14.07
2022-10-13T05:44:09.208Z,14.10
2022-10-13T05:46:43.354Z,13.95
2022-10-13T05:49:11.166Z,14.80
2022-10-13T05:51:45.850Z,13.75
2022-10-13T05:54:24.661Z,13.93
2022-10-13T05:56:58.972Z,14.43
2022-10-13T05:59:33.815Z,13.98
2022-10-13T06:02:04.157Z,13.75
2022-10-13T06:04:46.351Z,15.27
2022-10-13T06:07:14.356Z,14.30
2022-10-13T06:09:42.956Z,14.57
2022-10-13T06:12:10.873Z,15.25
2022-10-13T06:14:38.456Z,13.70
2022-10-13T06:17:07.905Z,14.25
2022-10-13T06:19:35.434Z,14.55
2022-10-13T06:22:08.891Z,13.80
2022-10-13T06:24:36.451Z,14.23
2022-10-13T06:27:05.895Z,14.00
2022-10-13T06:29:33.717Z,15.23
2022-10-13T06:32:01.105Z,14.30
2022-10-13T06:34:28.495Z,14.88
2022-10-13T06:36:55.980Z,15.00
2022-10-13T06:39:23.599Z,14.75
2022-10-13T06:41:52.244Z,14.48
2022-10-13T06:44:19.699Z,15.13
2022-10-13T06:46:48.112Z,15.25
2022-10-13T06:49:15.716Z,14.20
2022-10-13T06:51:43.075Z,14.27
2022-10-13T06:54:12.741Z,15.05
2022-10-13T06:56:40.112Z,14.60
2022-10-13T06:59:10.999Z,14.98
2022-10-13T07:01:41.513Z,14.68
2022-10-13T07:04:13.162Z,14.40
2022-10-13T07:06:41.360Z,15.02
2022-10-13T07:09:14.434Z,15.05
2022-10-13T07:11:47.816Z,14.32
2022-10-13T07:14:16.788Z,14.75
2022-10-13T07:16:44.279Z,14.30
2022-10-13T07:19:12.804Z,14.60
2022-10-13T07:21:41.975Z,14.35
2022-10-13T07:24:11.119Z,14.82
2022-10-13T07:26:38.614Z,14.82
2022-10-13T07:29:08.006Z,14.48
2022-10-13T07:31:35.470Z,13.95
2022-10-13T07:34:05.170Z,14.65
2022-10-13T07:36:35.578Z,14.70
2022-10-13T07:39:03.772Z,15.27
2022-10-13T07:41:31.941Z,14.07
2022-10-13T07:43:59.528Z,14.57
2022-10-13T07:46:27.096Z,14.65
2022-10-13T07:48:55.536Z,14.82
2022-10-13T07:51:23.389Z,15.00
2022-10-13T07:53:50.885Z,15.52
2022-10-13T07:56:18.419Z,15.10
2022-10-13T07:58:48.053Z,15.18
2022-10-13T08:01:16.698Z,15.60
2022-10-13T08:03:49.077Z,15.00
2022-10-13T08:06:19.194Z,14.63
2022-10-13T08:08:46.891Z,14.70
2022-10-13T08:11:17.895Z,15.02
2022-10-13T08:13:51.069Z,14.48
2022-10-13T08:16:22.284Z,14.25
2022-10-13T08:18:50.419Z,14.73
2022-10-13T08:26:41.793Z,13.40
2022-10-13T08:29:21.524Z,13.63
2022-10-13T08:31:53.500Z,14.73
2022-10-13T08:34:24.316Z,14.57
2022-10-13T08:36:56.137Z,15.23
2022-10-13T08:39:24.986Z,14.95
2022-10-13T08:41:54.274Z,15.57
2022-10-13T08:47:46.984Z,13.93
2022-10-13T08:50:27.897Z,14.85
2022-10-13T08:53:12.581Z,14.07
2022-10-13T08:55:51.682Z,14.93
2022-10-13T08:58:24.696Z,14.10
2022-10-13T09:01:08.719Z,14.57
2022-10-13T09:04:11.934Z,13.73
2022-10-13T09:06:46.991Z,14.43
2022-10-13T09:09:16.508Z,14.38
2022-10-13T09:11:49.007Z,14.25
2022-10-13T09:14:28.900Z,13.73
2022-10-13T09:17:23.803Z,13.40
2022-10-13T09:20:20.028Z,13.10
2022-10-13T09:23:21.293Z,12.88
2022-10-13T09:25:52.415Z,13.60
2022-10-13T09:28:24.659Z,13.52
2022-10-13T09:31:15.915Z,13.18
2022-10-13T09:33:44.111Z,12.97
2022-10-13T09:36:17.597Z,12.95
2022-10-13T09:39:16.351Z,13.23
2022-10-13T09:41:45.149Z,12.52
2022-10-13T09:44:31.162Z,12.15
2022-10-13T09:47:03.908Z,12.88
2022-10-13T09:52:13.349Z,11.50
2022-10-13T09:54:40.890Z,11.85
2022-10-13T09:57:32.419Z,12.95
2022-10-13T10:00:26.042Z,11.68
2022-10-13T10:03:26.757Z,13.27
2022-10-13T10:05:59.562Z,12.60
2022-10-13T10:09:04.872Z,12.15
2022-10-13T10:11:42.295Z,12.27
2022-10-13T10:14:25.203Z,12.18
2022-10-13T10:17:17.417Z,11.85
2022-10-13T10:20:33.101Z,12.27
2022-10-13T10:23:18.853Z,11.38
2022-10-13T10:26:04.738Z,12.00
2022-10-13T10:29:22.671Z,12.48
2022-10-13T10:32:00.493Z,12.57
2022-10-13T10:34:46.519Z,11.38
2022-10-13T10:38:14.441Z,11.77
2022-10-13T10:40:54.896Z,11.00
2022-10-13T10:44:00.287Z,11.32
2022-10-13T10:46:36.603Z,11.82
2022-10-13T10:49:33.774Z,11.85
2022-10-13T10:52:08.289Z,11.20
2022-10-13T10:55:02.637Z,11.07
2022-10-13T10:57:50.486Z,11.38
2022-10-13T11:00:22.472Z,12.65
2022-10-13T11:03:08.555Z,11.65
2022-10-13T11:05:57.697Z,11.40
2022-10-13T11:08:38.182Z,12.00
2022-10-13T11:11:27.638Z,11.80
2022-10-13T11:14:00.974Z,12.15
2022-10-13T11:16:35.273Z,11.48
2022-10-13T11:19:23.272Z,11.27
2022-10-13T11:21:53.843Z,10.88
2022-10-13T11:24:34.912Z,12.50
2022-10-13T11:27:09.072Z,12.20
2022-10-13T11:29:53.799Z,12.45
2022-10-13T11:32:42.749Z,13.45
2022-10-13T11:35:10.123Z,12.20
2022-10-13T11:38:07.729Z,12.68
2022-10-13T11:40:48.463Z,13.45
2022-10-13T11:43:48.984Z,11.48
2022-10-13T11:46:24.508Z,13.55
2022-10-13T11:49:13.814Z,13.60
2022-10-13T11:52:06.670Z,12.63
2022-10-13T11:57:24.731Z,12.10
2022-10-13T11:59:57.250Z,12.38
2022-10-13T12:02:29.909Z,12.65
2022-10-13T12:05:19.469Z,13.32
2022-10-13T12:07:51.297Z,13.27
2022-10-13T12:10:36.194Z,12.55
2022-10-13T12:13:07.776Z,12.15
2022-10-13T12:15:42.348Z,12.65
2022-10-13T12:18:34.290Z,13.38
2022-10-13T12:21:11.063Z,12.90
2022-10-13T12:23:38.722Z,14.25
2022-10-13T12:26:07.175Z,13.82
2022-10-13T12:29:03.966Z,13.15
2022-10-13T12:31:42.716Z,13.30
2022-10-13T12:34:33.207Z,14.20
2022-10-13T12:37:21.434Z,13.23
2022-10-13T12:39:49.471Z,13.95
2022-10-13T12:42:18.388Z,14.35
2022-10-13T12:44:46.513Z,13.35
2022-10-13T12:47:49.453Z,13.55
2022-10-13T12:50:27.545Z,12.93
2022-10-13T12:53:12.471Z,12.50
2022-10-13T12:56:01.878Z,10.43
2022-10-13T12:58:33.815Z,11.70
2022-10-13T13:01:13.259Z,11.15
2022-10-13T13:03:43.748Z,11.45
2022-10-13T13:06:14.111Z,11.45
2022-10-13T13:08:43.410Z,11.55
2022-10-13T13:11:34.253Z,12.02
2022-10-13T13:14:37.209Z,11.63
2022-10-13T13:17:38.479Z,11.93
2022-10-13T13:20:22.367Z,11.40
2022-10-13T13:22:50.725Z,12.90
2022-10-13T13:25:18.254Z,11.55
2022-10-13T13:27:45.755Z,11.88
2022-10-13T13:30:21.011Z,11.18
2022-10-13T13:32:49.689Z,11.85
2022-10-13T13:35:18.706Z,12.90
2022-10-13T13:37:53.109Z,13.30
2022-10-13T13:40:27.495Z,12.65
2022-10-13T13:42:55.792Z,13.25
2022-10-13T13:45:26.055Z,13.13
2022-10-13T13:47:59.531Z,12.13
2022-10-13T13:50:34.692Z,12.43
2022-10-13T13:53:03.147Z,12.45
2022-10-13T13:55:30.768Z,12.90
2022-10-13T13:57:58.695Z,12.45
2022-10-13T14:00:26.347Z,13.13
2022-10-13T14:02:56.627Z,13.32
2022-10-13T14:05:24.506Z,12.85
2022-10-13T14:07:57.728Z,13.18
2022-10-13T14:10:26.497Z,11.88
2022-10-13T14:12:54.067Z,12.93
2022-10-13T14:15:22.509Z,13.13
2022-10-13T14:17:54.508Z,13.35
2022-10-13T14:20:22.552Z,12.88
2022-10-13T14:22:50.378Z,13.15
2022-10-13T14:25:18.030Z,13.23
2022-10-13T14:27:46.585Z,13.18
2022-10-13T14:30:14.673Z,13.40
2022-10-13T14:32:42.712Z,14.25
2022-10-13T14:35:10.185Z,13.27
2022-10-13T14:37:37.889Z,14.00
2022-10-13T14:40:06.098Z,14.18
2022-10-13T14:42:33.587Z,13.80
2022-10-13T14:45:02.719Z,13.77
2022-10-13T14:47:30.149Z,13.98
2022-10-13T14:49:57.688Z,12.85
2022-10-13T14:52:25.105Z,13.73
2022-10-13T14:54:52.632Z,13.32
2022-10-13T14:57:20.200Z,13.98
2022-10-13T14:59:47.806Z,14.02
2022-10-13T15:02:15.686Z,12.93
2022-10-13T15:04:52.077Z,12.68
2022-10-13T15:07:19.792Z,12.88
2022-10-13T15:09:53.182Z,13.05
2022-10-13T15:12:28.282Z,13.27
2022-10-13T15:14:55.740Z,12.63
2022-10-13T15:17:23.226Z,13.52
2022-10-13T15:19:50.647Z,12.85
2022-10-13T15:22:18.226Z,13.15
2022-10-13T15:24:45.927Z,13.32
2022-10-13T15:27:13.633Z,13.05
2022-10-13T15:29:41.158Z,12.48
2022-10-13T15:32:17.995Z,13.20
2022-10-13T15:34:50.210Z,12.13
2022-10-13T15:37:17.887Z,11.88
2022-10-13T15:39:45.259Z,11.75
2022-10-13T15:42:12.844Z,12.65
2022-10-13T15:45:08.276Z,12.95
2022-10-13T15:47:27.757Z,12.98
2022-10-13T15:49:55.278Z,12.80
2022-10-13T15:52:23.197Z,12.82
2022-10-13T15:54:51.475Z,13.77
2022-10-13T15:57:18.932Z,13.27
2022-10-13T15:59:47.381Z,13.38
2022-10-13T16:02:14.787Z,13.98
2022-10-13T16:04:42.170Z,14.07
2022-10-13T16:07:09.628Z,14.68
2022-10-13T16:09:37.080Z,14.38
2022-10-13T16:12:04.891Z,15.63
2022-10-13T16:14:33.986Z,14.95
2022-10-13T16:17:03.632Z,15.68
2022-10-13T16:19:31.190Z,15.60
2022-10-13T16:21:58.607Z,15.35
2022-10-13T16:24:26.142Z,15.60
2022-10-13T16:26:53.704Z,16.05
2022-10-13T16:29:21.192Z,15.85
2022-10-13T16:31:48.659Z,15.68
2022-10-13T16:34:16.156Z,15.85
2022-10-13T16:36:43.806Z,15.90
2022-10-13T16:39:11.536Z,16.35
2022-10-13T16:41:42.563Z,16.73
2022-10-13T16:44:10.031Z,15.77
2022-10-13T16:46:37.446Z,16.63
2022-10-13T16:49:05.083Z,16.98
2022-10-13T16:51:32.490Z,15.80
2022-10-13T16:54:04.163Z,16.33
2022-10-13T16:56:32.933Z,16.60
2022-10-13T16:59:05.055Z,17.20
2022-10-13T17:01:34.716Z,15.52
2022-10-13T17:04:04.158Z,16.77
2022-10-13T17:06:31.766Z,16.00
2022-10-13T17:09:03.145Z,15.50
2022-10-13T17:11:34.511Z,15.00
2022-10-13T17:14:05.783Z,14.48
2022-10-13T17:16:33.649Z,14.18
2022-10-13T17:19:01.120Z,14.90
2022-10-13T17:21:36.901Z,15.02
2022-10-13T17:24:06.535Z,14.77
2022-10-13T17:26:34.043Z,14.57
2022-10-13T17:29:01.962Z,14.82
2022-10-13T17:31:30.693Z,16.15
2022-10-13T17:34:00.046Z,14.43
2022-10-13T17:36:31.840Z,14.38
2022-10-13T17:39:07.939Z,14.05
2022-10-13T17:41:38.907Z,14.55
2022-10-13T17:44:07.327Z,13.13
2022-10-13T17:46:39.339Z,13.63
2022-10-13T17:49:11.595Z,13.48
2022-10-13T17:51:41.761Z,14.05
2022-10-13T17:54:15.711Z,14.43
2022-10-13T17:56:44.219Z,14.00
2022-10-13T17:59:12.903Z,14.25
2022-10-13T18:01:41.951Z,13.15
2022-10-13T18:04:16.675Z,13.85
2022-10-13T18:06:45.593Z,14.73
2022-10-13T18:09:24.562Z,14.70
2022-10-13T18:11:54.382Z,15.57
2022-10-13T18:14:24.591Z,15.82
2022-10-13T18:16:53.815Z,17.80
2022-10-13T18:19:22.681Z,16.73
2022-10-13T18:21:50.344Z,18.70
2022-10-13T18:24:17.727Z,20.23
2022-10-13T18:26:46.351Z,19.73
2022-10-13T18:29:13.877Z,21.08
2022-10-13T18:31:42.555Z,20.42
2022-10-13T18:34:17.028Z,20.08
2022-10-13T18:36:48.525Z,20.80
2022-10-13T18:39:27.319Z,20.90
2022-10-13T18:41:56.688Z,21.65
2022-10-13T18:44:32.201Z,21.67
2022-10-13T18:46:59.892Z,23.85
2022-10-13T18:49:33.444Z,23.77
2022-10-13T18:52:01.798Z,23.52
2022-10-13T18:54:30.398Z,24.40
2022-10-13T18:56:57.973Z,24.60
2022-10-13T18:59:26.471Z,25.27
2022-10-13T19:01:53.960Z,24.02
2022-10-13T19:04:23.281Z,26.77
2022-10-13T19:06:51.210Z,26.65
2022-10-13T19:09:19.549Z,26.00
2022-10-13T19:11:47.331Z,26.67
2022-10-13T19:14:16.871Z,26.10
2022-10-13T19:16:44.308Z,26.65
2022-10-13T19:19:12.544Z,27.10
2022-10-13T19:21:40.835Z,27.40
2022-10-13T19:24:10.539Z,27.98
2022-10-13T19:26:38.222Z,27.33
2022-10-13T19:29:13.056Z,27.15
2022-10-13T19:31:42.660Z,28.48
2022-10-13T19:34:12.488Z,27.08
2022-10-13T19:36:46.572Z,28.35
2022-10-13T19:39:20.134Z,26.67
2022-10-13T19:41:49.514Z,26.77
2022-10-13T19:44:19.467Z,28.80
2022-10-13T19:46:47.858Z,26.50
2022-10-13T19:49:18.790Z,28.90
2022-10-13T19:51:47.876Z,29.38
2022-10-13T19:54:17.686Z,27.33
2022-10-13T19:56:50.223Z,30.65
2022-10-13T19:59:18.845Z,29.98
2022-10-13T20:01:46.922Z,30.63
2022-10-13T20:04:17.872Z,29.15
2022-10-13T20:06:51.122Z,28.55
2022-10-13T20:09:20.599Z,30.70
2022-10-13T20:11:51.098Z,29.20
2022-10-13T20:14:19.766Z,32.17
2022-10-13T20:16:48.584Z,32.13
2022-10-13T20:19:19.393Z,32.40
2022-10-13T20:21:51.622Z,33.60
2022-10-13T20:24:23.022Z,32.63
2022-10-13T20:26:50.513Z,33.42
2022-10-13T20:29:22.750Z,33.45
2022-10-13T20:31:50.261Z,35.63
2022-10-13T20:34:17.773Z,34.15
2022-10-13T20:36:45.180Z,35.60
2022-10-13T20:39:12.583Z,36.08
2022-10-13T20:41:40.216Z,34.95
2022-10-13T20:44:09.912Z,36.60
2022-10-13T20:46:37.626Z,35.03
2022-10-13T20:49:10.992Z,34.83
2022-10-13T20:51:42.517Z,34.30
2022-10-13T20:54:12.734Z,35.87
2022-10-13T20:56:42.240Z,34.50
2022-10-13T20:59:12.636Z,34.05
2022-10-13T21:01:40.800Z,35.17
2022-10-13T21:04:08.406Z,35.38
2022-10-13T21:06:36.825Z,34.28
2022-10-13T21:09:06.385Z,35.22
2022-10-13T21:11:35.286Z,34.72
2022-10-13T21:14:06.653Z,35.38
2022-10-13T21:16:35.446Z,36.35
2022-10-13T21:19:07.744Z,34.90
2022-10-13T21:21:37.898Z,36.75
2022-10-13T21:24:08.397Z,35.83
2022-10-13T21:26:37.149Z,37.03
2022-10-13T21:29:05.256Z,37.60
2022-10-13T21:31:36.029Z,39.22
2022-10-13T21:34:04.172Z,38.53
2022-10-13T21:36:34.061Z,40.53
2022-10-13T21:39:05.831Z,38.22
2022-10-13T21:41:34.563Z,39.42
2022-10-13T21:44:02.120Z,39.70
2022-10-13T21:46:34.079Z,38.72
2022-10-13T21:49:05.268Z,40.95
2022-10-13T21:51:39.406Z,39.65
2022-10-13T21:54:12.727Z,39.80
2022-10-13T21:56:41.745Z,39.00
2022-10-13T21:59:13.733Z,37.88
2022-10-13T22:01:42.288Z,38.13
2022-10-13T22:04:14.675Z,37.67
2022-10-13T22:06:43.701Z,37.60
2022-10-13T22:09:13.126Z,37.97
2022-10-13T22:11:41.455Z,35.67
2022-10-13T22:14:12.560Z,38.45
2022-10-13T22:16:44.585Z,37.38
2022-10-13T22:19:13.362Z,38.92
2022-10-13T22:21:46.215Z,38.05
2022-10-13T22:24:18.676Z,37.67
2022-10-13T22:26:48.940Z,37.45
2022-10-13T22:29:20.432Z,37.05
2022-10-13T22:31:49.427Z,40.17
2022-10-13T22:34:17.582Z,40.67
2022-10-13T22:36:45.563Z,37.88
2022-10-13T22:39:13.918Z,39.67
2022-10-13T22:41:41.515Z,38.63
2022-10-13T22:44:09.100Z,37.65
2022-10-13T22:46:38.437Z,39.38
2022-10-13T22:49:07.591Z,37.05
2022-10-13T22:51:36.508Z,38.40
2022-10-13T22:54:05.528Z,38.42
2022-10-13T22:56:35.584Z,37.58
2022-10-13T22:59:08.434Z,37.92
2022-10-13T23:01:37.020Z,37.25
2022-10-13T23:04:05.690Z,37.97
2022-10-13T23:06:35.292Z,40.65
2022-10-13T23:09:07.250Z,39.45
2022-10-13T23:11:35.065Z,40.28
2022-10-13T23:14:11.843Z,39.90
2022-10-13T23:16:44.148Z,38.95
2022-10-13T23:19:11.526Z,37.55
2022-10-13T23:21:39.107Z,38.97
2022-10-13T23:24:07.421Z,36.78
2022-10-13T23:26:35.806Z,34.92
2022-10-13T23:29:04.376Z,35.92
2022-10-13T23:31:32.713Z,34.50
2022-10-13T23:34:00.194Z,33.85
2022-10-13T23:36:31.867Z,35.65
2022-10-13T23:41:29.357Z,33.40
2022-10-13T23:43:57.222Z,37.30
2022-10-13T23:46:25.228Z,36.13
2022-10-13T23:48:52.694Z,32.72
2022-10-13T23:51:24.080Z,34.53
2022-10-13T23:53:52.258Z,33.15
2022-10-13T23:56:20.661Z,34.72
2022-10-13T23:58:49.493Z,34.83
